createdAt,value
2022-11-25T00:01:32.854Z,100650.00
2022-11-25T00:05:44.652Z,100648.34
2022-11-25T00:09:56.152Z,100652.56
2022-11-25T00:14:11.822Z,100645.38
2022-11-25T00:18:23.417Z,100624.63
2022-11-25T00:22:34.956Z,100621.13
2022-11-25T00:26:46.593Z,100625.06
2022-11-25T00:31:05.016Z,100625.50
2022-11-25T00:35:16.605Z,100625.91
2022-11-25T00:39:28.848Z,100627.59
2022-11-25T00:43:59.019Z,100609.53
2022-11-25T00:48:10.583Z,100611.38
2022-11-25T00:52:26.929Z,100611.81
2022-11-25T00:56:38.645Z,100624.38
2022-11-25T01:00:50.343Z,100605.69
2022-11-25T01:05:01.991Z,100606.53
2022-11-25T01:09:13.783Z,100603.44
2022-11-25T01:13:25.366Z,100594.78
2022-11-25T01:17:36.912Z,100606.09
2022-11-25T01:21:48.642Z,100595.19
2022-11-25T01:26:09.026Z,100596.63
2022-11-25T01:30:20.579Z,100602.59
2022-11-25T01:34:34.591Z,100605.84
2022-11-25T01:38:51.164Z,100604.19
2022-11-25T01:43:02.836Z,100599.25
2022-11-25T01:47:24.426Z,100611.56
2022-11-25T01:52:00.947Z,100614.47
2022-11-25T01:56:12.673Z,100607.44
2022-11-25T02:00:25.609Z,100605.53
2022-11-25T02:04:39.506Z,100606.78
2022-11-25T02:08:55.217Z,100597.88
2022-11-25T02:13:06.847Z,100606.13
2022-11-25T02:17:21.332Z,100609.22
2022-11-25T02:21:45.343Z,100600.34
2022-11-25T02:25:57.894Z,100610.44
2022-11-25T02:30:09.881Z,100604.25
2022-11-25T02:34:21.439Z,100607.75
2022-11-25T02:38:54.894Z,100617.44
2022-11-25T02:43:08.904Z,100627.91
2022-11-25T02:47:20.464Z,100626.88
2022-11-25T02:51:32.496Z,100634.66
2022-11-25T02:55:44.071Z,100636.72
2022-11-25T02:59:56.644Z,100648.03
2022-11-25T03:04:08.274Z,100646.75
2022-11-25T03:08:20.387Z,100643.00
2022-11-25T03:12:33.226Z,100637.22
2022-11-25T03:16:45.093Z,100652.41
2022-11-25T03:20:57.164Z,100657.56
2022-11-25T03:25:11.920Z,100670.53
2022-11-25T03:29:23.516Z,100659.59
2022-11-25T03:33:35.130Z,100651.56
2022-11-25T03:37:46.965Z,100645.19
2022-11-25T03:41:58.866Z,100611.38
2022-11-25T03:46:10.455Z,100617.94
2022-11-25T03:50:22.298Z,100637.97
2022-11-25T03:54:34.107Z,100650.72
2022-11-25T03:58:58.737Z,100646.41
2022-11-25T04:03:10.299Z,100651.75
2022-11-25T04:07:24.085Z,100650.13
2022-11-25T04:11:54.405Z,100627.56
2022-11-25T04:16:06.080Z,100642.97
2022-11-25T04:20:17.638Z,100664.97
2022-11-25T04:24:35.768Z,100669.31
2022-11-25T04:28:48.864Z,100677.81
2022-11-25T04:33:01.476Z,100700.22
2022-11-25T04:37:13.342Z,100686.00
2022-11-25T04:41:25.898Z,100689.72
2022-11-25T04:46:06.251Z,100701.88
2022-11-25T04:50:14.196Z,100717.97
2022-11-25T04:54:35.728Z,100731.75
2022-11-25T04:59:06.265Z,100745.78
2022-11-25T05:03:21.245Z,100750.09
2022-11-25T05:07:32.903Z,100747.41
2022-11-25T05:11:44.425Z,100752.16
2022-11-25T05:15:59.964Z,100753.19
2022-11-25T05:20:11.968Z,100758.31
2022-11-25T05:24:24.874Z,100762.19
2022-11-25T05:28:37.395Z,100766.91
2022-11-25T05:32:48.906Z,100760.94
2022-11-25T05:37:00.991Z,100753.72
2022-11-25T05:41:14.028Z,100757.63
2022-11-25T05:45:28.863Z,100769.00
2022-11-25T05:49:41.349Z,100769.59
2022-11-25T05:53:53.040Z,100767.53
2022-11-25T05:58:06.951Z,100769.19
2022-11-25T06:02:19.695Z,100779.47
2022-11-25T06:06:32.099Z,100782.59
2022-11-25T06:10:44.121Z,100788.19
2022-11-25T06:14:55.984Z,100801.81
2022-11-25T06:19:07.535Z,100810.69
2022-11-25T06:23:19.538Z,100807.41
2022-11-25T06:27:49.981Z,100811.50
2022-11-25T06:32:03.469Z,100804.34
2022-11-25T06:36:32.319Z,100812.41
2022-11-25T06:40:43.743Z,100815.56
2022-11-25T06:44:55.299Z,100813.56
2022-11-25T06:49:07.317Z,100815.47
2022-11-25T06:53:23.857Z,100823.34
2022-11-25T06:57:35.638Z,100838.59
2022-11-25T07:01:47.625Z,100844.81
2022-11-25T07:05:59.887Z,100840.25
2022-11-25T07:10:11.487Z,100855.31
2022-11-25T07:14:23.278Z,100863.97
2022-11-25T07:18:36.641Z,100875.91
2022-11-25T07:22:48.059Z,100873.00
2022-11-25T07:26:59.542Z,100878.13
2022-11-25T07:31:28.704Z,100887.59
2022-11-25T07:35:43.470Z,100882.84
2022-11-25T07:39:54.884Z,100900.94
2022-11-25T07:44:08.773Z,100892.94
2022-11-25T07:48:28.988Z,100902.41
2022-11-25T07:52:40.856Z,100901.19
2022-11-25T07:56:52.599Z,100913.56
2022-11-25T08:01:05.848Z,100920.34
2022-11-25T08:05:17.362Z,100927.16
2022-11-25T08:09:28.819Z,100937.06
2022-11-25T08:13:40.460Z,100949.63
2022-11-25T08:17:52.729Z,100947.78
2022-11-25T08:22:04.547Z,100950.66
2022-11-25T08:26:30.078Z,100952.94
2022-11-25T08:30:41.596Z,100955.22
2022-11-25T08:34:53.049Z,100974.38
2022-11-25T08:39:28.881Z,100975.59
2022-11-25T08:43:38.931Z,100982.00
2022-11-25T08:47:50.428Z,100987.13
2022-11-25T08:52:01.908Z,100993.00
2022-11-25T08:56:14.133Z,101006.81
2022-11-25T09:00:25.656Z,101002.81
2022-11-25T09:04:37.075Z,101009.59
2022-11-25T09:08:48.643Z,100997.34
2022-11-25T09:13:00.306Z,101013.81
2022-11-25T09:17:12.708Z,101011.63
2022-11-25T09:21:24.810Z,101031.72
2022-11-25T09:25:36.671Z,101037.97
2022-11-25T09:29:48.147Z,101043.63
2022-11-25T09:33:59.731Z,101046.88
2022-11-25T09:38:11.324Z,101054.31
2022-11-25T09:42:53.773Z,101064.66
2022-11-25T09:47:34.716Z,101072.22
2022-11-25T09:51:55.417Z,101081.31
2022-11-25T09:56:17.803Z,101082.63
2022-11-25T10:00:38.669Z,101095.88
2022-11-25T10:05:06.236Z,101101.56
2022-11-25T10:09:22.442Z,101099.03
2022-11-25T10:13:45.672Z,101112.09
2022-11-25T10:18:06.304Z,101112.38
2022-11-25T10:22:26.959Z,101113.13
2022-11-25T10:26:55.828Z,101113.63
2022-11-25T10:31:07.416Z,101116.78
2022-11-25T10:35:48.326Z,101125.03
2022-11-25T10:39:59.982Z,101120.81
2022-11-25T10:44:26.595Z,101122.22
2022-11-25T10:48:53.170Z,101129.16
2022-11-25T10:53:22.535Z,101120.34
2022-11-25T10:57:34.066Z,101135.78
2022-11-25T11:01:45.655Z,101146.91
2022-11-25T11:05:57.272Z,101141.38
2022-11-25T11:10:15.236Z,101151.84
2022-11-25T11:14:29.949Z,101149.94
2022-11-25T11:18:41.824Z,101169.91
2022-11-25T11:23:14.105Z,101175.31
2022-11-25T11:27:26.497Z,101167.91
2022-11-25T11:31:40.903Z,101173.06
2022-11-25T11:36:04.785Z,101180.72
2022-11-25T11:40:25.861Z,101192.09
2022-11-25T11:44:59.001Z,101203.53
2022-11-25T11:49:26.281Z,101208.09
2022-11-25T11:53:57.514Z,101192.59
2022-11-25T11:58:19.627Z,101204.69
2022-11-25T12:02:59.162Z,101218.44
2022-11-25T12:07:32.672Z,101220.06
2022-11-25T12:11:49.656Z,101222.66
2022-11-25T12:16:10.480Z,101231.34
2022-11-25T12:20:55.866Z,101240.03
2022-11-25T12:25:19.186Z,101245.59
2022-11-25T12:29:43.899Z,101240.19
2022-11-25T12:34:21.597Z,101247.66
2022-11-25T12:38:57.098Z,101246.50
2022-11-25T12:43:39.548Z,101256.66
2022-11-25T12:47:52.583Z,101248.88
2022-11-25T12:52:42.234Z,101279.28
2022-11-25T12:57:17.993Z,101280.66
2022-11-25T13:01:34.314Z,101285.69
2022-11-25T13:05:58.056Z,101291.81
2022-11-25T13:10:38.461Z,101288.19
2022-11-25T13:15:09.084Z,101302.97
2022-11-25T13:19:20.896Z,101304.41
2022-11-25T13:23:49.109Z,101307.47
2022-11-25T13:28:05.506Z,101304.13
2022-11-25T13:32:38.232Z,101324.81
2022-11-25T13:36:52.054Z,101339.91
2022-11-25T13:41:15.960Z,101341.41
2022-11-25T13:45:32.627Z,101337.56
2022-11-25T13:49:51.769Z,101347.47
2022-11-25T13:54:07.335Z,101336.19
2022-11-25T13:58:29.359Z,101346.91
2022-11-25T14:02:45.425Z,101341.81
2022-11-25T14:07:17.145Z,101357.88
2022-11-25T14:11:53.267Z,101370.38
2022-11-25T14:16:19.846Z,101367.97
2022-11-25T14:20:55.981Z,101364.34
2022-11-25T14:25:16.192Z,101376.81
2022-11-25T14:29:43.836Z,101390.13
2022-11-25T14:34:03.540Z,101381.13
2022-11-25T14:38:22.329Z,101384.72
2022-11-25T14:42:41.453Z,101398.59
2022-11-25T14:46:58.741Z,101403.56
2022-11-25T14:51:13.795Z,101408.16
2022-11-25T14:55:30.128Z,101402.44
2022-11-25T14:59:45.421Z,101400.38
2022-11-25T15:04:17.704Z,101421.50
2022-11-25T15:08:39.156Z,101443.63
2022-11-25T15:12:53.699Z,101444.06
2022-11-25T15:17:17.892Z,101463.09
2022-11-25T15:21:33.801Z,101471.19
2022-11-25T15:25:52.977Z,101469.75
2022-11-25T15:30:54.413Z,101481.13
2022-11-25T15:35:14.198Z,101480.50
2022-11-25T15:39:27.664Z,101487.09
2022-11-25T15:43:42.060Z,101496.19
2022-11-25T15:47:53.713Z,101502.38
2022-11-25T15:52:15.105Z,101502.56
2022-11-25T15:56:27.764Z,101528.16
2022-11-25T16:00:41.848Z,101533.50
2022-11-25T16:05:23.257Z,101544.88
2022-11-25T16:09:35.211Z,101557.47
2022-11-25T16:13:48.629Z,101558.91
2022-11-25T16:18:24.560Z,101573.16
2022-11-25T16:22:31.895Z,101588.06
2022-11-25T16:26:56.519Z,101586.47
2022-11-25T16:31:16.221Z,101598.66
2022-11-25T16:35:27.808Z,101596.41
2022-11-25T16:39:39.682Z,101607.56
2022-11-25T16:43:51.777Z,101612.13
2022-11-25T16:48:16.144Z,101623.28
2022-11-25T16:52:27.711Z,101627.00
2022-11-25T16:56:41.818Z,101631.34
2022-11-25T17:00:56.406Z,101634.81
2022-11-25T17:05:20.462Z,101645.84
2022-11-25T17:09:32.478Z,101653.34
2022-11-25T17:13:49.014Z,101664.22
2022-11-25T17:18:03.141Z,101673.00
2022-11-25T17:22:21.088Z,101681.97
2022-11-25T17:26:38.195Z,101675.69
2022-11-25T17:30:49.837Z,101685.06
2022-11-25T17:35:01.472Z,101692.25
2022-11-25T17:39:14.639Z,101717.84
2022-11-25T17:43:30.378Z,101716.09
2022-11-25T17:47:45.307Z,101730.88
2022-11-25T17:51:56.942Z,101745.94
2022-11-25T17:56:25.876Z,101739.06
2022-11-25T18:00:39.723Z,101761.97
2022-11-25T18:04:51.328Z,101773.31
2022-11-25T18:09:02.861Z,101766.69
2022-11-25T18:13:16.582Z,101777.97
2022-11-25T18:17:28.203Z,101780.56
2022-11-25T18:21:40.799Z,101775.97
2022-11-25T18:25:54.438Z,101790.75
2022-11-25T18:30:08.104Z,101793.53
2022-11-25T18:34:19.845Z,101798.63
2022-11-25T18:38:31.441Z,101809.06
2022-11-25T18:42:45.054Z,101814.13
2022-11-25T18:46:56.771Z,101821.34
2022-11-25T18:51:12.234Z,101826.63
2022-11-25T18:55:24.202Z,101829.72
2022-11-25T18:59:37.287Z,101829.00
2022-11-25T19:03:49.943Z,101843.75
2022-11-25T19:08:02.796Z,101840.97
2022-11-25T19:12:18.751Z,101839.00
2022-11-25T19:16:30.827Z,101854.22
2022-11-25T19:20:42.603Z,101847.91
2022-11-25T19:24:54.167Z,101874.03
2022-11-25T19:29:08.864Z,101887.31
2022-11-25T19:33:34.596Z,101882.53
2022-11-25T19:37:46.176Z,101896.28
2022-11-25T19:41:57.744Z,101902.69
2022-11-25T19:46:46.439Z,101910.88
2022-11-25T19:51:04.735Z,101926.16
2022-11-25T19:55:23.431Z,101932.84
2022-11-25T19:59:35.019Z,101933.19
2022-11-25T20:03:49.651Z,101935.56
2022-11-25T20:08:01.418Z,101938.28
2022-11-25T20:12:33.386Z,101951.81
2022-11-25T20:16:45.099Z,101959.22
2022-11-25T20:21:05.676Z,101957.56
2022-11-25T20:25:18.189Z,101952.28
2022-11-25T20:29:30.786Z,101961.63
2022-11-25T20:33:42.416Z,101968.97
2022-11-25T20:37:54.450Z,101977.88
2022-11-25T20:42:06.503Z,101972.69
2022-11-25T20:46:23.976Z,101982.22
2022-11-25T20:50:35.517Z,101993.91
2022-11-25T20:54:47.374Z,102005.94
2022-11-25T20:58:58.965Z,102013.59
2022-11-25T21:03:10.584Z,102010.78
2022-11-25T21:07:22.271Z,102010.28
2022-11-25T21:11:34.013Z,102023.28
2022-11-25T21:15:46.122Z,102021.13
2022-11-25T21:19:57.675Z,102027.63
2022-11-25T21:24:32.170Z,102021.94
2022-11-25T21:28:46.644Z,102030.94
2022-11-25T21:33:01.092Z,102037.28
2022-11-25T21:37:12.753Z,102039.63
2022-11-25T21:41:24.381Z,102045.63
2022-11-25T21:45:35.948Z,102054.47
2022-11-25T21:49:48.020Z,102074.00
2022-11-25T21:53:59.661Z,102077.84
2022-11-25T21:58:29.473Z,102089.88
2022-11-25T22:02:41.039Z,102089.34
2022-11-25T22:06:52.689Z,102084.13
2022-11-25T22:11:05.571Z,102098.31
2022-11-25T22:15:20.994Z,102102.97
2022-11-25T22:19:33.294Z,102103.28
2022-11-25T22:23:44.884Z,102100.59
2022-11-25T22:27:56.673Z,102110.59
2022-11-25T22:32:13.208Z,102121.94
2022-11-25T22:36:37.408Z,102112.75
2022-11-25T22:40:53.802Z,102119.25
2022-11-25T22:45:07.819Z,102119.59
2022-11-25T22:49:29.028Z,102130.44
2022-11-25T22:53:40.592Z,102122.22
2022-11-25T22:57:54.364Z,102135.41
2022-11-25T23:02:06.415Z,102144.03
2022-11-25T23:06:18.023Z,102154.88
2022-11-25T23:10:31.493Z,102151.03
2022-11-25T23:14:44.204Z,102154.16
2022-11-25T23:18:55.950Z,102149.44
2022-11-25T23:23:15.127Z,102144.19
2022-11-25T23:27:26.666Z,102160.81
2022-11-25T23:32:05.429Z,102182.28
2022-11-25T23:36:25.850Z,102173.72
2022-11-25T23:40:37.451Z,102191.00
2022-11-25T23:44:49.072Z,102190.66
2022-11-25T23:49:03.071Z,102193.31
2022-11-25T23:53:27.824Z,102195.50
2022-11-25T23:57:39.361Z,102198.50
